x

Cape Elizabeth- 45nm Nw Of Aberdeen, Wa (46041) Wave Buoy

2:50 - Sun 4th Dec 2016 All times are PST. -8 hours from GMT.

  • Sig Wave height 13.1ft
  • Swell Direction
  • Peak Period 15s
  • Average Period 9s
  • Wind
    20mph, 29mph gusts
  • Sea Temp 55°f
  • Air Temp 47°f
  • Sea Pressure 1018mb
  • Cape Elizabeth- 45nm Nw Of Aberdeen, Wa
  • Cape Elizabeth- 45nm Nw Of Aberdeen, Wa

More Historic Weather Station data

Upgrade to MSW Pro to gain access to the past 30 days of data for over 8000 Wavebouys and Weather Stations around the globe.

Join Pro

Comparision Forecast

View Surf forecast
   
dim. 12/04 2:50 13ft 15s 9s 20 29 mph 1018mb 55f 47f
12:50 15.5ft 15s 10s 22 25 mph 1019mb 55f 46f
sam. 12/03 11:50 13.5ft 13s 9s 22 27 mph 1019.6mb 55f 47f
10:50 12.5ft 14s 9s 20 25 mph 1020mb 55f 47f
9:50 14ft 15s 9s 18 25 mph 1020.2mb 55f 47f
8:50 14ft 15s 9s 22 29 mph 1020.6mb 55f 47f
7:50 15.5ft 15s 10s 18 25 mph 1020.8mb 56f 49f
6:50 15.5ft 15s 10s 22 29 mph 1021mb 56f 49f
5:50 16.5ft 16s 10s 18 25 mph 1021.4mb 56f 50f
4:50 15.5ft 16s 10s 20 25 mph 1022mb 56f 50f
3:50 14.5ft 16s 10s 20 25 mph 1022.8mb 56f 51f
2:50 18ft 16s 11s 18 20 mph 1023.4mb 56f 51f
1:50 17.5ft 16s 11s 20 25 mph 1023.9mb 56f 51f
12:50 14.5ft 16s 10s 18 22 mph 1025mb 56f 52f
11:50 16.5ft 14s 10s 18 25 mph 1025.7mb 56f 52f
10:50 18ft 17s 11s 18 22 mph 1025.7mb 56f 51f
9:50 16.5ft 16s 11s 18 20 mph 1025.7mb 56f 51f
8:50 17ft 17s 11s 11 18 mph 1025.9mb 56f 51f
7:50 18.5ft 17s 11s 13 18 mph 1025.4mb 56f 51f
6:50 18.5ft 15s 11s 18 25 mph 1025.6mb 56f 51f
5:50 17.5ft 17s  -  20 25 mph 1025.2mb 56f 51f
4:50 20.5ft 17s 12s 18 25 mph 1024.8mb 56f 49f
3:50 19.5ft 17s 11s 18 25 mph 1024.7mb 56f 51f
2:50 19.5ft 17s 12s 18 25 mph 1024.3mb 56f 51f
1:50 20.5ft 17s 12s 20 31 mph 1024.3mb 56f 50f
12:50 15ft 17s 10s 18 25 mph 1023.9mb 56f 51f
ven. 12/02 11:50 12.5ft 17s 9s 20 25 mph 1023.6mb 56f 52f
10:50 11.5ft 12s 8s 18 22 mph 1022.9mb 56f 52f
9:50 12.5ft 19s 8s 18 25 mph 1022.3mb 56f 52f
8:50 11ft 12s 8s 20 25 mph 1022mb 56f 52f
7:50 12ft 11s 8s 18 22 mph 1021.4mb 56f 52f
6:50 12ft 11s 8s 20 25 mph 1020.9mb 56f 52f
5:50 11.5ft 13s 8s 20 25 mph 1020.4mb 56f 53f
4:50 13ft 12s 8s 20 27 mph 1019.8mb 56f 53f
3:50 12ft 11s 7s 20 25 mph 1019.6mb 56f 54f
2:50 12ft 8s 7s 20 25 mph 1019.2mb 56f 54f
1:50 12ft 11s 7s 16 22 mph 1019.2mb 56f 52f
12:50 12ft 6s 7s 29 34 mph 1019.2mb 56f 53f
11:50 11.5ft 11s 7s 27 34 mph 1020.1mb 56f 53f
10:50 11ft 11s 7s 29 38 mph 1020.5mb 56f 53f
9:50 10.5ft 12s 7s 29 36 mph 1021mb 56f 53f
8:50 10ft 12s 7s 27 34 mph 1021.7mb 56f 53f
7:50 10ft 12s 7s 25 29 mph 1022.1mb 56f 52f
6:50 11ft 12s 7s 25 29 mph 1022.3mb 56f 52f
5:50 10ft 12s 7s 25 29 mph 1022.7mb 56f 52f
4:50 10ft 11s 7s 25 29 mph 1022.8mb 56f 52f
3:50 10ft 11s 7s 25 29 mph 1023.7mb 56f 52f
2:50 9ft 11s 7s 22 27 mph 1024.5mb 56f 52f
1:50 9ft 11s 7s 22 25 mph 1024.8mb 56f 53f
12:50 9ft 11s 7s 22 25 mph 1024.8mb 56f 53f
jeu. 12/01 11:50 8ft 11s 7s 20 22 mph 1024.9mb 56f 53f
10:50 7ft 11s 7s 20 22 mph 1025mb 55f 53f
9:50 8ft 11s 7s 13 18 mph 1024.9mb 55f 53f
8:50 7.5ft 12s 7s 13 18 mph 1025mb 55f 52f
7:50 8ft 12s 8s 16 20 mph 1025.3mb 54f 52f
6:50 8ft 12s 8s 16 18 mph 1025.5mb 54f 51f
5:50 7.5ft 13s 8s 11 13 mph 1025.7mb 54f 50f
4:50 8.5ft 12s 8s 9 11 mph 1025.4mb 54f 52f
3:50 9.5ft 13s 8s 9 11 mph 1024.9mb 54f 52f
2:50 9.5ft 12s 8s 11 13 mph 1024.7mb 54f 51f
1:50 9ft 12s 8s 4 9 mph 1024.5mb 54f 49f
12:50 10.5ft 11s 9s 11 16 mph 1024.7mb 54f 50f
11:50 11ft 11s 8s 4 9 mph 1024.9mb 54f 50f
10:50 12ft 12s 9s 7 11 mph 1025mb 54f 50f
9:50 12.5ft 12s 9s 9 13 mph 1024.6mb 54f 50f
8:50 13ft 13s 9s 18 22 mph 1024.2mb 55f 50f
7:50 12ft 13s 9s 9 13 mph 1024mb 55f 50f
6:50 13ft 13s 9s 11 13 mph 1023.7mb 55f 50f
5:50 12.5ft 13s 9s 11 13 mph 1023.4mb 55f 50f
4:50 13ft 14s 9s 16 20 mph 1023.1mb 55f 50f
3:50 12.5ft 14s 9s 16 20 mph 1023.2mb 55f 50f
2:50 12ft 14s 9s 20 25 mph 1023.3mb 55f 50f
1:50 14ft 12s 9s 16 20 mph 1022.6mb 55f 50f
12:50 13.5ft 14s 8s 18 25 mph 1021.9mb 55f 50f
mer. 11/30 11:50 13ft 13s 8s 20 25 mph 1022mb 55f 50f
10:50 15.5ft 13s 9s 22 29 mph 1021.6mb 55f 50f
9:50 17.5ft 13s 9s 20 25 mph 1021.4mb 55f 50f
8:50 16ft 12s 9s 25 31 mph 1021mb 55f 51f
7:50 20ft 14s 10s 25 34 mph 1021mb 55f 48f
6:50 20ft 15s 10s 25 29 mph 1020.3mb 55f 51f
5:50 17.5ft 12s 9s 25 29 mph 1020mb 56f 51f
4:50 17.5ft 12s 9s 20 27 mph 1019.6mb 56f 51f
3:50 17ft 12s 8s 22 29 mph 1019mb 56f 52f
2:50 18.5ft 13s 9s 27 31 mph 1018.2mb 56f 52f
1:50 18.5ft 13s 9s 29 34 mph 1017.5mb 56f 52f
12:50 17.5ft 13s 8s 29 36 mph 1016.9mb 56f 52f